createdAt,value
2022-09-18T00:01:25.482Z,97340.50
2022-09-18T00:03:54.961Z,97333.38
2022-09-18T00:06:24.600Z,97338.69
2022-09-18T00:08:53.283Z,97343.97
2022-09-18T00:11:22.489Z,97331.59
2022-09-18T00:13:50.179Z,97335.06
2022-09-18T00:16:18.507Z,97329.75
2022-09-18T00:18:45.865Z,97328.78
2022-09-18T00:21:15.321Z,97324.63
2022-09-18T00:23:42.732Z,97312.50
2022-09-18T00:26:11.112Z,97317.34
2022-09-18T00:28:37.845Z,97317.34
2022-09-18T00:31:10.042Z,97324.44
2022-09-18T00:33:37.771Z,97314.47
2022-09-18T00:36:06.103Z,97314.72
2022-09-18T00:38:33.628Z,97311.97
2022-09-18T00:41:02.252Z,97318.19
2022-09-18T00:43:31.933Z,97323.47
2022-09-18T00:46:09.550Z,97321.00
2022-09-18T00:49:03.231Z,97319.16
2022-09-18T00:51:33.236Z,97320.00
2022-09-18T00:54:15.116Z,97321.00
2022-09-18T00:56:42.276Z,97308.72
2022-09-18T00:59:12.065Z,97310.38
2022-09-18T01:01:38.733Z,97313.16
2022-09-18T01:04:10.646Z,97313.84
2022-09-18T01:06:41.278Z,97311.22
2022-09-18T01:09:44.455Z,97310.38
2022-09-18T01:12:18.952Z,97311.38
2022-09-18T01:15:01.017Z,97306.53
2022-09-18T01:17:33.737Z,97314.84
2022-09-18T01:20:25.717Z,97316.66
2022-09-18T01:23:26.550Z,97317.47
2022-09-18T01:26:16.446Z,97320.13
2022-09-18T01:28:50.965Z,97321.97
2022-09-18T01:31:26.001Z,97313.84
2022-09-18T01:33:56.660Z,97321.81
2022-09-18T01:36:27.008Z,97320.13
2022-09-18T01:39:05.835Z,97322.78
2022-09-18T01:41:35.328Z,97332.41
2022-09-18T01:44:08.216Z,97262.81
2022-09-18T01:46:39.993Z,97322.78
2022-09-18T01:49:11.494Z,97316.13
2022-09-18T01:52:06.904Z,97328.09
2022-09-18T01:54:38.966Z,97324.38
2022-09-18T01:57:24.544Z,97331.72
2022-09-18T02:00:09.377Z,97330.34
2022-09-18T02:02:58.500Z,97339.66
2022-09-18T02:05:33.564Z,97334.34
2022-09-18T02:08:07.397Z,97343.16
2022-09-18T02:10:38.442Z,97343.16
2022-09-18T02:13:09.656Z,97328.03
2022-09-18T02:15:39.447Z,97338.47
2022-09-18T02:18:17.949Z,97339.66
2022-09-18T02:20:46.909Z,97335.81
2022-09-18T02:23:14.457Z,97332.56
2022-09-18T02:25:54.655Z,97337.00
2022-09-18T02:28:23.963Z,97334.34
2022-09-18T02:30:51.018Z,97345.81
2022-09-18T02:33:25.321Z,97344.13
2022-09-18T02:36:24.248Z,97338.84
2022-09-18T02:39:14.867Z,97353.91
2022-09-18T02:42:04.849Z,97335.28
2022-09-18T02:45:01.336Z,97341.66
2022-09-18T02:47:34.444Z,97348.75
2022-09-18T02:50:03.784Z,97347.94
2022-09-18T02:52:41.932Z,97315.97
2022-09-18T02:55:23.770Z,97336.63
2022-09-18T02:57:57.423Z,97349.59
2022-09-18T03:00:26.259Z,97343.44
2022-09-18T03:02:58.742Z,97347.75
2022-09-18T03:05:34.440Z,97334.47
2022-09-18T03:08:02.514Z,97345.44
2022-09-18T03:10:31.258Z,97347.09
2022-09-18T03:12:58.077Z,97347.09
2022-09-18T03:15:24.595Z,97353.22
2022-09-18T03:17:51.226Z,97354.03
2022-09-18T03:20:17.873Z,97344.47
2022-09-18T03:22:44.441Z,97350.72
2022-09-18T03:25:14.430Z,97340.44
2022-09-18T03:27:42.952Z,97350.72
2022-09-18T03:30:12.740Z,97352.41
2022-09-18T03:32:39.492Z,97344.03
2022-09-18T03:35:08.319Z,97354.19
2022-09-18T03:37:35.231Z,97356.03
2022-09-18T03:40:04.440Z,97350.19
2022-09-18T03:42:31.541Z,97362.16
2022-09-18T03:45:00.403Z,97361.34
2022-09-18T03:47:27.545Z,97371.06
2022-09-18T03:49:54.332Z,97368.41
2022-09-18T03:52:21.951Z,97372.91
2022-09-18T03:54:56.226Z,97373.72
2022-09-18T03:57:46.923Z,97370.25
2022-09-18T04:00:42.974Z,97379.03
2022-09-18T04:03:18.479Z,97378.19
2022-09-18T04:06:08.065Z,97371.66
2022-09-18T04:09:13.242Z,97385.28
2022-09-18T04:11:47.309Z,97386.16
2022-09-18T04:14:14.737Z,97388.78
2022-09-18T04:16:41.249Z,97381.00
2022-09-18T04:19:08.540Z,97376.53
2022-09-18T04:21:35.117Z,97380.16
2022-09-18T04:24:01.999Z,97381.00
2022-09-18T04:26:29.609Z,97378.34
2022-09-18T04:28:59.308Z,97388.09
2022-09-18T04:31:30.829Z,97388.09
2022-09-18T04:34:01.965Z,97403.03
2022-09-18T04:36:28.588Z,97401.34
2022-09-18T04:38:55.220Z,97403.19
2022-09-18T04:41:21.965Z,97401.34
2022-09-18T04:43:48.464Z,97403.19
2022-09-18T04:46:15.996Z,97402.31
2022-09-18T04:48:48.043Z,97379.09
2022-09-18T04:51:16.429Z,97400.53
2022-09-18T04:53:48.052Z,97407.63
2022-09-18T04:56:15.129Z,97404.16
2022-09-18T04:58:46.249Z,97411.13
2022-09-18T05:01:12.994Z,97411.13
2022-09-18T05:03:41.280Z,97413.78
2022-09-18T05:06:10.373Z,97416.41
2022-09-18T05:08:37.220Z,97410.28
2022-09-18T05:11:04.887Z,97412.09
2022-09-18T05:13:34.672Z,97412.09
2022-09-18T05:16:09.525Z,97409.44
2022-09-18T05:18:36.652Z,97421.72
2022-09-18T05:21:04.856Z,97421.72
2022-09-18T05:23:34.495Z,97405.44
2022-09-18T05:26:02.252Z,97403.19
2022-09-18T05:28:28.900Z,97416.56
2022-09-18T05:31:01.125Z,97416.56
2022-09-18T05:33:34.527Z,97419.22
2022-09-18T05:36:04.260Z,97419.22
2022-09-18T05:38:31.240Z,97416.56
2022-09-18T05:41:00.984Z,97418.22
2022-09-18T05:43:27.788Z,97419.22
2022-09-18T05:45:54.545Z,97410.00
2022-09-18T05:48:28.230Z,97413.63
2022-09-18T05:50:57.891Z,97417.41
2022-09-18T05:53:26.889Z,97419.06
2022-09-18T05:56:32.121Z,97420.88
2022-09-18T05:59:00.752Z,97416.41
2022-09-18T06:01:30.649Z,97415.56
2022-09-18T06:04:13.549Z,97418.09
2022-09-18T06:06:46.317Z,97416.25
2022-09-18T06:09:14.319Z,97418.91
2022-09-18T06:11:40.907Z,97423.22
2022-09-18T06:14:07.735Z,97424.06
2022-09-18T06:16:37.485Z,97427.56
2022-09-18T06:19:08.548Z,97424.75
2022-09-18T06:21:35.092Z,97433.53
2022-09-18T06:24:04.030Z,97423.94
2022-09-18T06:26:59.903Z,97433.53
2022-09-18T06:29:27.032Z,97424.59
2022-09-18T06:32:00.106Z,97416.41
2022-09-18T06:34:27.481Z,97436.88
2022-09-18T06:36:58.331Z,97442.97
2022-09-18T06:39:29.719Z,97442.84
2022-09-18T06:42:01.836Z,97443.84
2022-09-18T06:44:47.863Z,97443.84
2022-09-18T06:47:16.931Z,97442.84
2022-09-18T06:49:45.975Z,97446.31
2022-09-18T06:52:12.600Z,97444.28
2022-09-18T06:54:39.946Z,97439.94
2022-09-18T06:57:07.813Z,97448.81
2022-09-18T06:59:34.657Z,97444.38
2022-09-18T07:02:01.338Z,97446.03
2022-09-18T07:04:53.674Z,97448.69
2022-09-18T07:07:20.628Z,97448.69
2022-09-18T07:09:50.229Z,97452.16
2022-09-18T07:12:28.628Z,97443.84
2022-09-18T07:14:55.928Z,97456.50
2022-09-18T07:17:26.487Z,97452.97
2022-09-18T07:19:58.329Z,97450.22
2022-09-18T07:22:37.543Z,97455.50
2022-09-18T07:25:05.761Z,97454.53
2022-09-18T07:27:33.048Z,97438.38
2022-09-18T07:30:00.517Z,97449.91
2022-09-18T07:32:27.763Z,97448.09
2022-09-18T07:34:56.432Z,97451.56
2022-09-18T07:37:29.366Z,97454.22
2022-09-18T07:40:19.052Z,97456.06
2022-09-18T07:43:10.331Z,97452.84
2022-09-18T07:45:44.491Z,97455.88
2022-09-18T07:48:11.196Z,97448.47
2022-09-18T07:50:42.805Z,97434.00
2022-09-18T07:53:10.012Z,97444.09
2022-09-18T07:55:38.896Z,97451.59
2022-09-18T07:58:06.994Z,97460.38
2022-09-18T08:01:09.034Z,97462.19
2022-09-18T08:03:44.921Z,97459.56
2022-09-18T08:06:11.669Z,97459.56
2022-09-18T08:08:47.180Z,97460.38
2022-09-18T08:11:22.562Z,97466.53
2022-09-18T08:14:16.279Z,97455.06
2022-09-18T08:17:03.858Z,97463.03
2022-09-18T08:19:53.560Z,97461.22
2022-09-18T08:22:39.557Z,97441.06
2022-09-18T08:25:07.187Z,97453.28
2022-09-18T08:27:38.783Z,97467.34
2022-09-18T08:30:08.044Z,97454.09
2022-09-18T08:32:34.756Z,97446.13
2022-09-18T08:35:03.081Z,97431.28
2022-09-18T08:37:30.530Z,97445.16
2022-09-18T08:40:18.042Z,97425.44
2022-09-18T08:43:21.607Z,97460.09
2022-09-18T08:45:58.491Z,97450.31
2022-09-18T08:48:38.035Z,97448.50
2022-09-18T08:51:22.975Z,97450.16
2022-09-18T08:53:55.567Z,97426.84
2022-09-18T08:56:35.797Z,97442.06
2022-09-18T08:59:33.553Z,97387.88
2022-09-18T09:02:22.969Z,97444.56
2022-09-18T09:04:58.517Z,97445.38
2022-09-18T09:07:28.832Z,97452.34
2022-09-18T09:10:14.121Z,97450.69
2022-09-18T09:12:44.452Z,97444.56
2022-09-18T09:15:28.884Z,97449.84
2022-09-18T09:18:20.063Z,97450.69
2022-09-18T09:20:52.177Z,97448.88
2022-09-18T09:23:43.597Z,97450.69
2022-09-18T09:26:23.035Z,97436.69
2022-09-18T09:29:13.459Z,97448.88
2022-09-18T09:32:01.162Z,97451.53
2022-09-18T09:35:41.965Z,97444.56
2022-09-18T09:38:29.385Z,97441.91
2022-09-18T09:40:59.657Z,97434.78
2022-09-18T09:43:39.039Z,97432.97
2022-09-18T09:46:21.467Z,97440.94
2022-09-18T09:49:23.221Z,97437.28
2022-09-18T09:52:09.141Z,97441.75
2022-09-18T09:54:37.201Z,97439.94
2022-09-18T09:57:19.236Z,97446.06
2022-09-18T10:00:08.374Z,97447.06
2022-09-18T10:03:06.697Z,97447.75
2022-09-18T10:05:53.668Z,97438.94
2022-09-18T10:08:43.174Z,97445.91
2022-09-18T10:11:13.167Z,97445.91
2022-09-18T10:13:48.589Z,97447.59
2022-09-18T10:16:24.440Z,97452.19
2022-09-18T10:18:52.347Z,97446.75
2022-09-18T10:21:28.350Z,97447.50
2022-09-18T10:24:05.846Z,97465.16
2022-09-18T10:26:41.255Z,97471.28
2022-09-18T10:29:10.148Z,97468.63
2022-09-18T10:31:56.307Z,97462.50
2022-09-18T10:34:34.064Z,97468.63
2022-09-18T10:37:01.421Z,97471.28
2022-09-18T10:39:31.708Z,97467.81
2022-09-18T10:42:06.786Z,97462.50
2022-09-18T10:44:40.672Z,97477.44
2022-09-18T10:47:21.445Z,97461.38
2022-09-18T10:49:54.794Z,97462.19
2022-09-18T10:52:21.612Z,97463.75
2022-09-18T10:54:58.942Z,97450.31
2022-09-18T10:58:01.821Z,97457.13
2022-09-18T11:00:29.943Z,97459.78
2022-09-18T11:03:21.676Z,97468.56
2022-09-18T11:06:01.957Z,97481.81
2022-09-18T11:08:33.795Z,97470.22
2022-09-18T11:11:05.400Z,97474.03
2022-09-18T11:13:49.552Z,97479.78
2022-09-18T11:16:27.192Z,97494.31
2022-09-18T11:19:06.501Z,97500.94
2022-09-18T11:21:48.207Z,97504.69
2022-09-18T11:24:23.145Z,97512.13
2022-09-18T11:26:55.317Z,97516.03
2022-09-18T11:29:33.815Z,97507.69
2022-09-18T11:32:25.329Z,97512.47
2022-09-18T11:34:58.881Z,97492.00
2022-09-18T11:37:34.125Z,97513.69
2022-09-18T11:40:08.884Z,97509.75
2022-09-18T11:42:44.922Z,97506.66
2022-09-18T11:45:41.761Z,97494.56
2022-09-18T11:48:27.239Z,97503.25
2022-09-18T11:51:01.555Z,97498.66
2022-09-18T11:53:48.725Z,97502.97
2022-09-18T11:56:28.937Z,97501.97
2022-09-18T11:59:26.744Z,97494.88
2022-09-18T12:02:02.121Z,97490.53
2022-09-18T12:04:49.207Z,97503.78
2022-09-18T12:07:37.408Z,97504.09
2022-09-18T12:10:26.077Z,97497.13
2022-09-18T12:13:37.280Z,97510.53
2022-09-18T12:16:28.380Z,97503.56
2022-09-18T12:18:58.276Z,97502.72
2022-09-18T12:21:37.237Z,97506.34
2022-09-18T12:24:11.253Z,97491.91
2022-09-18T12:26:54.887Z,97508.03
2022-09-18T12:29:26.862Z,97499.25
2022-09-18T12:32:04.642Z,97509.16
2022-09-18T12:35:16.061Z,97501.06
2022-09-18T12:37:42.842Z,97506.34
2022-09-18T12:40:19.524Z,97510.84
2022-09-18T12:43:25.080Z,97517.94
2022-09-18T12:46:10.048Z,97518.94
2022-09-18T12:49:04.628Z,97520.75
2022-09-18T12:51:40.384Z,97530.38
2022-09-18T12:54:44.172Z,97474.38
2022-09-18T12:57:16.732Z,97540.28
2022-09-18T12:59:56.309Z,97536.81
2022-09-18T13:02:37.746Z,97540.28
2022-09-18T13:05:12.774Z,97535.56
2022-09-18T13:07:56.051Z,97551.88
2022-09-18T13:10:31.030Z,97554.38
2022-09-18T13:13:06.625Z,97550.59
2022-09-18T13:15:40.395Z,97547.56
2022-09-18T13:18:26.176Z,97558.25
2022-09-18T13:20:54.162Z,97555.31
2022-09-18T13:23:26.705Z,97556.66
2022-09-18T13:25:55.020Z,97551.69
2022-09-18T13:28:23.684Z,97563.03
2022-09-18T13:31:22.308Z,97546.75
2022-09-18T13:34:17.522Z,97554.41
2022-09-18T13:36:46.019Z,97573.09
2022-09-18T13:39:22.171Z,97566.13
2022-09-18T13:41:58.474Z,97568.63
2022-09-18T13:44:30.684Z,97567.38
2022-09-18T13:47:14.244Z,97576.44
2022-09-18T13:49:48.745Z,97588.03
2022-09-18T13:52:31.452Z,97585.38
2022-09-18T13:55:13.067Z,97588.19
2022-09-18T13:57:41.438Z,97588.47
2022-09-18T14:00:34.068Z,97593.75
2022-09-18T14:03:06.715Z,97595.59
2022-09-18T14:05:38.034Z,97597.53
2022-09-18T14:08:20.178Z,97591.25
2022-09-18T14:10:59.827Z,97595.72
2022-09-18T14:13:43.610Z,97600.16
2022-09-18T14:16:40.674Z,97599.34
2022-09-18T14:19:31.217Z,97582.09
2022-09-18T14:21:59.377Z,97603.13
2022-09-18T14:24:50.604Z,97609.09
2022-09-18T14:27:46.255Z,97614.56
2022-09-18T14:30:31.453Z,97604.28
2022-09-18T14:33:22.881Z,97602.44
2022-09-18T14:36:05.860Z,97606.06
2022-09-18T14:38:35.719Z,97604.41
2022-09-18T14:41:07.117Z,97599.25
2022-09-18T14:43:34.773Z,97611.69
2022-09-18T14:46:01.730Z,97594.91
2022-09-18T14:48:31.007Z,97592.63
2022-09-18T14:51:06.364Z,97613.63
2022-09-18T14:53:43.550Z,97612.78
2022-09-18T14:56:15.942Z,97620.88
2022-09-18T14:58:46.303Z,97614.50
2022-09-18T15:01:24.341Z,97624.69
2022-09-18T15:03:53.505Z,97634.47
2022-09-18T15:06:24.180Z,97623.00
2022-09-18T15:08:57.002Z,97621.31
2022-09-18T15:11:34.526Z,97628.47
2022-09-18T15:14:42.675Z,97631.94
2022-09-18T15:17:26.924Z,97639.06
2022-09-18T15:20:15.615Z,97644.53
2022-09-18T15:22:42.352Z,97641.88
2022-09-18T15:25:13.292Z,97638.38
2022-09-18T15:27:41.656Z,97637.38
2022-09-18T15:30:18.588Z,97643.66
2022-09-18T15:33:07.843Z,97642.84
2022-09-18T15:35:37.987Z,97641.88
2022-09-18T15:38:08.219Z,97647.16
2022-09-18T15:40:37.626Z,97646.31
2022-09-18T15:43:26.134Z,97645.50
2022-09-18T15:46:03.453Z,97642.03
2022-09-18T15:48:35.171Z,97639.38
2022-09-18T15:51:14.880Z,97635.88
2022-09-18T15:54:00.162Z,97640.34
2022-09-18T15:56:26.944Z,97641.31
2022-09-18T15:58:59.263Z,97634.66
2022-09-18T16:01:35.522Z,97644.78
2022-09-18T16:04:08.894Z,97639.50
2022-09-18T16:08:22.272Z,97656.09
2022-09-18T16:10:51.905Z,97650.09
2022-09-18T16:13:19.770Z,97653.59
2022-09-18T16:15:47.821Z,97649.44
2022-09-18T16:18:27.211Z,97647.91
2022-09-18T16:20:57.852Z,97646.91
2022-09-18T16:23:31.460Z,97649.53
2022-09-18T16:26:24.942Z,97645.25
2022-09-18T16:29:06.344Z,97651.38
2022-09-18T16:31:36.160Z,97645.38
2022-09-18T16:34:20.963Z,97645.38
2022-09-18T16:36:48.046Z,97633.00
2022-09-18T16:39:25.563Z,97644.56
2022-09-18T16:41:52.880Z,97641.03
2022-09-18T16:44:19.656Z,97646.34
2022-09-18T16:46:49.753Z,97650.00
2022-09-18T16:49:21.566Z,97648.19
2022-09-18T16:51:48.351Z,97649.00
2022-09-18T16:54:17.666Z,97651.66
2022-09-18T16:56:54.132Z,97645.81
2022-09-18T16:59:23.489Z,97650.97
2022-09-18T17:02:03.470Z,97648.91
2022-09-18T17:04:31.256Z,97659.91
2022-09-18T17:07:01.571Z,97655.59
2022-09-18T17:09:28.421Z,97660.88
2022-09-18T17:11:55.348Z,97661.84
2022-09-18T17:14:22.891Z,97664.66
2022-09-18T17:16:49.604Z,97661.31
2022-09-18T17:21:53.520Z,97676.53
2022-09-18T17:24:25.477Z,97674.88
2022-09-18T17:26:53.091Z,97676.53
2022-09-18T17:29:19.691Z,97676.66
2022-09-18T17:31:46.392Z,97674.88
2022-09-18T17:34:13.087Z,97676.66
2022-09-18T17:36:40.147Z,97667.06
2022-09-18T17:39:07.439Z,97682.81
2022-09-18T17:41:36.407Z,97682.97
2022-09-18T17:44:04.024Z,97688.28
2022-09-18T17:46:30.986Z,97662.22
2022-09-18T17:48:59.580Z,97693.69
2022-09-18T17:51:28.929Z,97697.19
2022-09-18T17:54:02.899Z,97693.69
2022-09-18T17:56:30.398Z,97694.66
2022-09-18T17:58:59.949Z,97679.47
2022-09-18T18:01:27.964Z,97691.03
2022-09-18T18:03:55.171Z,97691.03
2022-09-18T18:06:22.263Z,97697.19
2022-09-18T18:08:50.222Z,97687.56
2022-09-18T18:11:21.973Z,97691.03
2022-09-18T18:13:50.177Z,97692.00
2022-09-18T18:18:35.479Z,97684.63
2022-09-18T18:21:02.177Z,97683.38
2022-09-18T18:23:28.782Z,97682.53
2022-09-18T18:25:55.366Z,97682.53
2022-09-18T18:28:23.268Z,97674.34
2022-09-18T18:31:12.275Z,97684.38
2022-09-18T18:33:42.529Z,97690.63
2022-09-18T18:36:13.541Z,97679.22
2022-09-18T18:38:42.245Z,97682.84
2022-09-18T18:41:09.928Z,97669.03
2022-09-18T18:43:37.948Z,97675.88
2022-09-18T18:46:11.171Z,97681.97
2022-09-18T18:48:38.878Z,97646.91
2022-09-18T18:51:11.082Z,97702.50
2022-09-18T18:53:38.518Z,97685.75
2022-09-18T18:56:13.838Z,97692.72
2022-09-18T18:58:41.229Z,97673.38
2022-09-18T19:01:14.577Z,97677.81
2022-09-18T19:03:44.640Z,97680.47
2022-09-18T19:06:12.083Z,97680.47
2022-09-18T19:08:38.981Z,97687.44
2022-09-18T19:11:06.782Z,97687.44
2022-09-18T19:13:41.301Z,97687.28
2022-09-18T19:16:08.081Z,97684.50
2022-09-18T19:18:37.947Z,97688.00
2022-09-18T19:21:05.726Z,97677.22
2022-09-18T19:23:32.238Z,97678.09
2022-09-18T19:26:00.272Z,97681.56
2022-09-18T19:28:28.279Z,97678.75
2022-09-18T19:31:04.700Z,97683.09
2022-09-18T19:33:33.204Z,97679.47
2022-09-18T19:36:08.405Z,97681.28
2022-09-18T19:38:36.969Z,97692.00
2022-09-18T19:41:16.372Z,97679.06
2022-09-18T19:43:43.288Z,97695.50
2022-09-18T19:46:14.232Z,97685.06
2022-09-18T19:48:40.798Z,97683.38
2022-09-18T19:51:07.911Z,97686.88
2022-09-18T19:53:35.237Z,97689.50
2022-09-18T19:56:02.783Z,97694.81
2022-09-18T19:58:29.424Z,97688.69
2022-09-18T20:00:56.778Z,97687.84
2022-09-18T20:03:23.662Z,97678.34
2022-09-18T20:05:50.592Z,97679.06
2022-09-18T20:09:51.492Z,97676.13
2022-09-18T20:12:18.285Z,97681.72
2022-09-18T20:14:45.334Z,97681.72
2022-09-18T20:17:13.938Z,97676.56
2022-09-18T20:19:40.915Z,97676.56
2022-09-18T20:22:07.706Z,97674.88
2022-09-18T20:24:34.538Z,97678.50
2022-09-18T20:27:01.662Z,97676.69
2022-09-18T20:29:30.650Z,97682.13
2022-09-18T20:31:58.079Z,97679.47
2022-09-18T20:34:25.760Z,97680.47
2022-09-18T20:36:55.365Z,97681.31
2022-09-18T20:39:22.635Z,97660.41
2022-09-18T20:41:51.247Z,97672.66
2022-09-18T20:44:18.096Z,97678.78
2022-09-18T20:46:45.292Z,97673.94
2022-09-18T20:49:17.443Z,97667.78
2022-09-18T20:51:43.947Z,97675.31
2022-09-18T20:54:13.961Z,97673.47
2022-09-18T20:56:43.450Z,97666.66
2022-09-18T20:59:16.396Z,97669.19
2022-09-18T21:01:48.162Z,97660.22
2022-09-18T21:04:17.357Z,97662.06
2022-09-18T21:06:47.112Z,97662.06
2022-09-18T21:09:15.301Z,97666.53
2022-09-18T21:11:44.824Z,97585.88
2022-09-18T21:14:16.001Z,97656.75
2022-09-18T21:16:45.226Z,97648.00
2022-09-18T21:19:19.442Z,97649.63
2022-09-18T21:21:49.344Z,97648.81
2022-09-18T21:24:17.361Z,97645.03
2022-09-18T21:26:47.954Z,97647.53
2022-09-18T21:29:21.252Z,97650.88
2022-09-18T21:31:51.416Z,97644.78
2022-09-18T21:34:26.121Z,97644.22
2022-09-18T21:36:58.242Z,97648.09
2022-09-18T21:39:26.468Z,97641.97
2022-09-18T21:41:54.525Z,97635.69
2022-09-18T21:44:29.533Z,97638.19
2022-09-18T21:47:02.188Z,97631.94
2022-09-18T21:49:29.971Z,97637.91
2022-09-18T21:51:59.412Z,97635.13
2022-09-18T21:54:27.992Z,97628.84
2022-09-18T21:56:56.669Z,97632.31
2022-09-18T21:59:26.389Z,97629.50
2022-09-18T22:01:54.769Z,97628.69
2022-09-18T22:04:31.071Z,97628.69
2022-09-18T22:07:00.251Z,97624.22
2022-09-18T22:09:32.581Z,97629.22
2022-09-18T22:11:59.916Z,97634.69
2022-09-18T22:14:31.317Z,97630.91
2022-09-18T22:17:02.978Z,97627.25
2022-09-18T22:19:30.172Z,97627.94
2022-09-18T22:21:56.770Z,97626.97
2022-09-18T22:24:25.611Z,97624.31
2022-09-18T22:27:03.036Z,97627.78
2022-09-18T22:29:32.943Z,97624.31
2022-09-18T22:32:00.304Z,97625.16
2022-09-18T22:34:29.888Z,97626.81
2022-09-18T22:36:57.753Z,97621.53
2022-09-18T22:39:24.337Z,97625.03
2022-09-18T22:44:12.411Z,97611.63
2022-09-18T22:46:41.571Z,97608.00
2022-09-18T22:49:12.005Z,97604.63
2022-09-18T22:51:39.872Z,97605.50
2022-09-18T22:54:10.164Z,97609.94
2022-09-18T22:56:40.267Z,97589.47
2022-09-18T22:59:07.239Z,97600.75
2022-09-18T23:01:37.590Z,97607.28
2022-09-18T23:04:05.974Z,97595.72
2022-09-18T23:06:33.447Z,97601.16
2022-09-18T23:09:00.847Z,97585.97
2022-09-18T23:11:30.266Z,97594.03
2022-09-18T23:13:59.316Z,97603.66
2022-09-18T23:16:27.750Z,97592.38
2022-09-18T23:18:58.132Z,97593.22
2022-09-18T23:21:27.124Z,97591.38
2022-09-18T23:23:56.770Z,97590.56
2022-09-18T23:26:26.708Z,97590.56
2022-09-18T23:28:57.470Z,97582.19
2022-09-18T23:31:26.990Z,97581.75
2022-09-18T23:33:59.298Z,97496.75
2022-09-18T23:36:28.762Z,97570.06
2022-09-18T23:39:01.001Z,97587.91
2022-09-18T23:41:36.353Z,97586.25
2022-09-18T23:44:06.796Z,97585.38
2022-09-18T23:46:34.209Z,97584.41
2022-09-18T23:49:01.416Z,97580.09
2022-09-18T23:51:31.684Z,97581.75
2022-09-18T23:54:00.840Z,97573.00
2022-09-18T23:56:32.187Z,97580.09
2022-09-18T23:59:04.715Z,97578.44
